Time;durP1;ratioP1;P1;durP2;ratioP2;P2;SDS_P1;SDS_P2;PMS_P1;PMS_P2;Temp;Humidity;BMP_temperature;BMP_pressure;BME280_temperature;BME280_humidity;BME280_pressure;Samples;Min_cycle;Max_cycle;Signal;HPM_P1;HPM_P2
2021/03/31 00:01:57;;;;;;;12.53;6.67;;;12.10;56.60;;;;;;5060283;28;20525;-71
2021/03/31 00:04:22;;;;;;;17.27;7.60;;;12.10;56.80;;;;;;5070784;28;20553;-71
2021/03/31 00:06:48;;;;;;;14.10;7.40;;;12.10;56.90;;;;;;5071699;28;20223;-69
2021/03/31 00:09:14;;;;;;;16.87;7.77;;;12.10;56.90;;;;;;5071281;28;20663;-71
2021/03/31 00:11:40;;;;;;;15.63;7.40;;;12.10;56.80;;;;;;5071516;28;20432;-70
2021/03/31 00:14:06;;;;;;;17.53;7.37;;;12.00;56.90;;;;;;5070719;28;20441;-72
2021/03/31 00:16:32;;;;;;;14.83;7.60;;;12.10;56.50;;;;;;5070116;28;20449;-71
2021/03/31 00:18:58;;;;;;;18.00;8.27;;;12.00;56.90;;;;;;5071301;28;20179;-71
2021/03/31 00:21:24;;;;;;;17.23;8.23;;;12.00;57.00;;;;;;5071267;28;20825;-71
2021/03/31 00:23:50;;;;;;;16.50;8.50;;;12.00;56.80;;;;;;5060975;28;20177;-73
2021/03/31 00:26:15;;;;;;;17.43;8.30;;;12.00;56.90;;;;;;5071375;28;20200;-73
2021/03/31 00:28:42;;;;;;;14.77;7.27;;;11.90;57.60;;;;;;5070971;28;20434;-70
2021/03/31 00:31:08;;;;;;;18.50;7.03;;;11.90;58.70;;;;;;5075198;28;20191;-71
2021/03/31 00:33:34;;;;;;;19.73;9.60;;;11.80;58.80;;;;;;5072496;28;20433;-73
2021/03/31 00:36:00;;;;;;;18.23;9.03;;;11.80;59.10;;;;;;5072120;28;20442;-71
2021/03/31 00:38:26;;;;;;;25.40;9.80;;;11.80;59.30;;;;;;5071666;28;20552;-71
2021/03/31 00:40:54;;;;;;;19.17;9.00;;;11.70;59.50;;;;;;5070958;28;20223;-73
2021/03/31 00:43:23;;;;;;;15.57;8.37;;;11.70;59.60;;;;;;5070914;28;20451;-72
2021/03/31 00:45:50;;;;;;;16.83;8.63;;;11.60;59.60;;;;;;5070554;28;20449;-71
2021/03/31 00:48:17;;;;;;;16.93;6.57;;;11.60;59.60;;;;;;5070488;28;20992;-72
2021/03/31 00:50:44;;;;;;;16.00;6.77;;;11.60;59.90;;;;;;5071112;28;20418;-71
2021/03/31 00:53:11;;;;;;;16.27;7.20;;;11.50;60.10;;;;;;5070541;28;20442;-73
2021/03/31 00:55:37;;;;;;;13.37;6.43;;;11.40;60.30;;;;;;5070162;28;20437;-72
2021/03/31 00:58:03;;;;;;;13.70;6.70;;;11.30;60.70;;;;;;5070698;28;20414;-73
2021/03/31 01:00:29;;;;;;;23.80;11.40;;;11.20;61.00;;;;;;5061303;28;21236;-73
2021/03/31 01:02:56;;;;;;;21.27;12.00;;;11.20;61.30;;;;;;5066823;28;20215;-70
2021/03/31 01:05:24;;;;;;;21.90;7.33;;;11.30;61.30;;;;;;5085038;28;20438;-70
2021/03/31 01:07:51;;;;;;;14.77;7.10;;;11.20;61.50;;;;;;5070541;28;20429;-70
2021/03/31 01:10:19;;;;;;;18.33;7.43;;;11.20;61.60;;;;;;5070891;28;20513;-71
2021/03/31 01:13:13;;;;;;;12.97;7.03;;;11.10;62.00;;;;;;5070430;28;20430;-70
2021/03/31 01:15:54;;;;;;;12.37;6.13;;;11.10;62.00;;;;;;5049987;28;20460;-71
2021/03/31 01:18:30;;;;;;;15.33;6.47;;;11.10;62.50;;;;;;5070507;28;20790;-69
2021/03/31 01:21:20;;;;;;;15.07;6.53;;;11.10;62.60;;;;;;5070233;28;20486;-70
2021/03/31 01:24:05;;;;;;;15.23;6.03;;;11.10;62.80;;;;;;5058588;28;20470;-70
2021/03/31 01:26:57;;;;;;;10.60;5.97;;;11.00;62.60;;;;;;5069960;28;20465;-70
2021/03/31 01:30:00;;;;;;;11.37;5.83;;;11.00;63.10;;;;;;5056468;28;20435;-71
2021/03/31 01:32:41;;;;;;;15.33;7.47;;;10.90;63.70;;;;;;5075206;28;20430;-70
2021/03/31 01:35:09;;;;;;;14.20;7.30;;;10.80;63.50;;;;;;5074869;28;20501;-70
2021/03/31 01:37:42;;;;;;;13.70;6.60;;;10.80;63.70;;;;;;5069806;28;20456;-71
2021/03/31 01:40:12;;;;;;;16.97;8.07;;;10.70;63.80;;;;;;5071203;28;20462;-71
2021/03/31 01:42:45;;;;;;;15.03;7.10;;;10.70;64.10;;;;;;5074660;28;20418;-70
2021/03/31 01:45:13;;;;;;;15.00;6.50;;;10.70;64.20;;;;;;5073734;28;20517;-73
2021/03/31 01:47:43;;;;;;;15.13;7.13;;;10.60;63.90;;;;;;5070429;28;20433;-70
2021/03/31 01:50:11;;;;;;;12.47;6.50;;;10.60;64.40;;;;;;5072911;28;20951;-73
2021/03/31 01:52:37;;;;;;;17.87;7.63;;;10.60;64.70;;;;;;5075490;28;20457;-69
2021/03/31 01:55:05;;;;;;;13.37;6.77;;;10.60;65.10;;;;;;5076827;28;21079;-71
2021/03/31 01:57:31;;;;;;;17.53;7.77;;;10.50;65.10;;;;;;5071531;28;20438;-72
2021/03/31 01:59:59;;;;;;;13.50;6.63;;;10.50;65.10;;;;;;5064021;28;20474;-70
2021/03/31 02:02:25;;;;;;;15.30;7.20;;;10.50;65.30;;;;;;5061850;28;20457;-69
2021/03/31 02:04:52;;;;;;;13.33;7.70;;;10.40;65.40;;;;;;5067996;28;20450;-71
2021/03/31 02:07:20;;;;;;;16.83;8.30;;;10.50;65.30;;;;;;5070141;28;20459;-72
2021/03/31 02:09:48;;;;;;;11.50;6.20;;;10.40;65.40;;;;;;5068596;28;20461;-71
2021/03/31 02:12:24;;;;;;;16.53;6.80;;;10.40;65.30;;;;;;5069729;28;20988;-72
2021/03/31 02:14:52;;;;;;;12.77;6.43;;;10.40;65.10;;;;;;5056092;28;20438;-71
2021/03/31 02:17:26;;;;;;;13.67;6.17;;;10.40;65.10;;;;;;5069883;28;20418;-68
2021/03/31 02:19:53;;;;;;;11.20;5.43;;;10.30;65.60;;;;;;5069612;28;20461;-70
2021/03/31 02:22:22;;;;;;;12.70;6.70;;;10.30;65.70;;;;;;5069870;28;20425;-70
2021/03/31 02:24:48;;;;;;;11.63;6.63;;;10.20;65.80;;;;;;5059045;28;20442;-70
2021/03/31 02:27:14;;;;;;;17.07;7.30;;;10.20;66.00;;;;;;5069772;28;20461;-71
2021/03/31 02:29:44;;;;;;;14.40;7.30;;;10.20;66.10;;;;;;5070053;28;20541;-70
2021/03/31 02:32:11;;;;;;;14.60;6.57;;;10.20;66.10;;;;;;5069939;28;21068;-71
2021/03/31 02:34:38;;;;;;;13.27;6.97;;;10.20;66.00;;;;;;5069291;28;20418;-71
2021/03/31 02:37:05;;;;;;;11.27;6.50;;;10.20;66.00;;;;;;5070101;28;20528;-70
2021/03/31 02:39:34;;;;;;;13.13;6.73;;;10.10;66.30;;;;;;5069799;28;20893;-71
2021/03/31 02:42:02;;;;;;;19.47;7.40;;;10.10;66.10;;;;;;5070051;28;20795;-71
2021/03/31 02:44:30;;;;;;;15.20;6.93;;;10.10;66.10;;;;;;5084633;28;20457;-71
2021/03/31 02:46:59;;;;;;;14.53;7.50;;;10.10;66.30;;;;;;5069931;28;20479;-70
2021/03/31 02:49:28;;;;;;;16.47;7.90;;;10.10;66.40;;;;;;5069201;28;20430;-71
2021/03/31 02:51:55;;;;;;;24.10;7.83;;;10.00;66.40;;;;;;5069150;28;20818;-71
2021/03/31 02:54:22;;;;;;;15.60;7.07;;;10.00;66.70;;;;;;5068709;28;20504;-71
2021/03/31 02:56:48;;;;;;;13.97;7.73;;;10.00;66.90;;;;;;5069285;28;20493;-71
2021/03/31 02:59:16;;;;;;;14.07;7.67;;;9.90;67.00;;;;;;5069222;28;20510;-70
2021/03/31 03:01:42;;;;;;;18.60;8.23;;;9.90;66.90;;;;;;5069272;28;20462;-69
2021/03/31 03:04:08;;;;;;;13.60;7.10;;;9.90;66.90;;;;;;5064051;28;20443;-70
2021/03/31 03:06:34;;;;;;;17.93;6.93;;;9.90;67.00;;;;;;5068591;28;20449;-70
2021/03/31 03:09:03;;;;;;;12.80;6.37;;;9.90;67.20;;;;;;5069644;28;20426;-71
2021/03/31 03:11:30;;;;;;;16.57;6.93;;;9.80;67.30;;;;;;5071092;28;20436;-70
2021/03/31 03:13:56;;;;;;;13.43;7.47;;;9.80;67.70;;;;;;5072738;28;20487;-71
2021/03/31 03:16:22;;;;;;;15.27;6.87;;;9.80;67.60;;;;;;5073059;28;20456;-71
2021/03/31 03:18:47;;;;;;;10.70;5.80;;;9.80;67.60;;;;;;5073369;28;20430;-71
2021/03/31 03:21:15;;;;;;;13.87;6.90;;;9.80;67.30;;;;;;5072744;28;20215;-71
2021/03/31 03:23:42;;;;;;;14.50;6.70;;;9.70;67.30;;;;;;5063011;28;20188;-70
2021/03/31 03:26:10;;;;;;;19.33;6.43;;;9.70;67.60;;;;;;5073192;28;20473;-72
2021/03/31 03:28:38;;;;;;;14.63;6.77;;;9.70;67.70;;;;;;5075028;28;20417;-70
2021/03/31 03:31:07;;;;;;;19.80;7.03;;;9.70;67.20;;;;;;5074660;28;20430;-70
2021/03/31 03:33:33;;;;;;;15.43;6.60;;;9.60;67.60;;;;;;5072994;28;20430;-72
2021/03/31 03:36:03;;;;;;;15.30;7.70;;;9.60;68.00;;;;;;5074823;28;20508;-70
2021/03/31 03:38:29;;;;;;;14.10;6.43;;;9.50;67.50;;;;;;5073625;28;20482;-71
2021/03/31 03:40:55;;;;;;;14.27;7.10;;;9.50;67.70;;;;;;5073436;28;20504;-72
2021/03/31 03:43:21;;;;;;;14.00;5.83;;;9.50;68.30;;;;;;5073087;28;20441;-70
2021/03/31 03:45:49;;;;;;;14.03;7.23;;;9.50;68.50;;;;;;5074355;28;20752;-68
2021/03/31 03:48:15;;;;;;;13.87;6.70;;;9.50;68.90;;;;;;5073129;28;20184;-70
2021/03/31 03:50:41;;;;;;;13.73;6.73;;;9.50;69.20;;;;;;5073209;28;20452;-69
2021/03/31 03:53:07;;;;;;;12.60;6.20;;;9.40;69.20;;;;;;5073014;28;20484;-72
2021/03/31 03:55:34;;;;;;;11.00;5.97;;;9.30;69.80;;;;;;5072532;28;20211;-71
2021/03/31 03:58:06;;;;;;;15.73;7.70;;;9.30;69.90;;;;;;5072573;28;20521;-71
2021/03/31 04:00:32;;;;;;;13.83;7.60;;;9.30;69.80;;;;;;5074476;28;20560;-70
2021/03/31 04:02:58;;;;;;;12.83;6.57;;;9.30;69.90;;;;;;5077603;28;20476;-70
2021/03/31 04:05:24;;;;;;;16.70;6.80;;;9.30;69.80;;;;;;5067677;28;20486;-71
2021/03/31 04:07:51;;;;;;;14.27;6.40;;;9.30;69.90;;;;;;5068463;28;20450;-72
2021/03/31 04:10:18;;;;;;;15.97;6.97;;;9.30;70.10;;;;;;5072614;28;20508;-72
2021/03/31 04:12:44;;;;;;;13.00;7.10;;;9.30;70.20;;;;;;5070795;28;20465;-72
2021/03/31 04:15:11;;;;;;;15.67;7.20;;;9.30;70.20;;;;;;5071339;28;20452;-70
2021/03/31 04:17:39;;;;;;;14.17;7.20;;;9.30;70.20;;;;;;5088122;28;20465;-71
2021/03/31 04:20:09;;;;;;;12.60;6.77;;;9.30;70.40;;;;;;5073325;28;20469;-71
2021/03/31 04:22:35;;;;;;;11.70;6.90;;;9.30;70.20;;;;;;5071627;28;20509;-71
2021/03/31 04:25:01;;;;;;;14.10;7.13;;;9.30;70.20;;;;;;5063883;28;20477;-70
2021/03/31 04:27:28;;;;;;;17.70;7.00;;;9.20;70.50;;;;;;5074405;28;20429;-70
2021/03/31 04:29:54;;;;;;;19.33;7.43;;;9.30;70.20;;;;;;5072772;28;20434;-71
2021/03/31 04:32:20;;;;;;;19.67;7.80;;;9.30;70.20;;;;;;5071953;28;20917;-73
2021/03/31 04:34:47;;;;;;;17.80;7.60;;;9.30;70.20;;;;;;5070974;28;20773;-70
2021/03/31 04:37:16;;;;;;;15.27;7.47;;;9.40;69.90;;;;;;5071855;28;20422;-71
2021/03/31 04:39:42;;;;;;;15.30;7.90;;;9.40;69.80;;;;;;5071927;28;20955;-73
2021/03/31 04:42:09;;;;;;;13.77;6.90;;;9.40;69.70;;;;;;5072383;28;20471;-72
2021/03/31 04:44:34;;;;;;;18.03;7.70;;;9.40;69.90;;;;;;5071313;28;20564;-71
2021/03/31 04:47:02;;;;;;;18.10;8.37;;;9.30;69.90;;;;;;5071853;28;20517;-73
2021/03/31 04:49:28;;;;;;;15.67;7.80;;;9.40;69.90;;;;;;5070162;28;20184;-71
2021/03/31 04:51:54;;;;;;;15.80;8.67;;;9.40;69.80;;;;;;5071347;28;20472;-71
2021/03/31 04:54:20;;;;;;;15.60;7.50;;;9.30;69.70;;;;;;5070830;28;20505;-71
2021/03/31 04:56:45;;;;;;;15.33;7.40;;;9.30;69.90;;;;;;5071561;28;20207;-70
2021/03/31 04:59:11;;;;;;;22.37;8.00;;;9.30;69.90;;;;;;5072504;28;20422;-70
2021/03/31 05:01:37;;;;;;;18.00;8.40;;;9.30;70.10;;;;;;5058226;28;20211;-71
2021/03/31 05:04:03;;;;;;;20.20;9.17;;;9.30;70.10;;;;;;5071513;28;20598;-72
2021/03/31 05:06:28;;;;;;;17.00;7.93;;;9.30;70.40;;;;;;5070964;28;20211;-74
2021/03/31 05:08:54;;;;;;;15.90;8.00;;;9.30;70.20;;;;;;5071100;28;20430;-71
2021/03/31 05:11:20;;;;;;;16.43;8.30;;;9.30;70.40;;;;;;5070842;28;20187;-72
2021/03/31 05:13:46;;;;;;;15.57;8.10;;;9.30;70.50;;;;;;5068831;28;20198;-71
2021/03/31 05:16:11;;;;;;;14.37;8.13;;;9.20;70.70;;;;;;5070289;28;20760;-71
2021/03/31 05:18:37;;;;;;;18.63;7.00;;;9.30;71.00;;;;;;5069771;28;20202;-72
2021/03/31 05:21:03;;;;;;;18.63;8.10;;;9.30;70.80;;;;;;5070490;28;20203;-73
2021/03/31 05:23:29;;;;;;;21.17;8.10;;;9.30;71.00;;;;;;5061132;28;20618;-73
2021/03/31 05:25:55;;;;;;;17.47;7.60;;;9.40;70.80;;;;;;5071067;28;20460;-71
2021/03/31 05:28:21;;;;;;;15.03;7.50;;;9.50;70.70;;;;;;5073598;28;20424;-73
2021/03/31 05:30:47;;;;;;;17.40;7.47;;;9.50;70.50;;;;;;5070779;28;20187;-70
2021/03/31 05:33:12;;;;;;;16.47;7.50;;;9.50;70.20;;;;;;5070287;28;20267;-69
2021/03/31 05:35:38;;;;;;;17.27;7.53;;;9.50;69.50;;;;;;5071168;28;20208;-72
2021/03/31 05:38:04;;;;;;;19.03;8.50;;;9.50;70.10;;;;;;5071051;28;20222;-71
2021/03/31 05:40:32;;;;;;;15.03;7.10;;;9.50;69.70;;;;;;5065939;28;20695;-71
2021/03/31 05:42:59;;;;;;;15.17;8.00;;;9.60;69.40;;;;;;5063493;28;20929;-72
2021/03/31 05:45:27;;;;;;;14.80;7.07;;;9.60;69.20;;;;;;5067922;28;20928;-72
2021/03/31 05:47:52;;;;;;;22.20;8.70;;;9.50;69.40;;;;;;5070479;28;20418;-71
2021/03/31 05:50:18;;;;;;;15.30;7.33;;;9.60;69.70;;;;;;5070388;28;20437;-71
2021/03/31 05:52:45;;;;;;;15.87;7.73;;;9.60;69.80;;;;;;5071006;28;20247;-71
2021/03/31 05:55:15;;;;;;;17.37;8.30;;;9.60;69.50;;;;;;5057361;28;20199;-71
2021/03/31 05:57:42;;;;;;;13.73;7.70;;;9.60;69.90;;;;;;5071431;28;20418;-72
2021/03/31 06:00:10;;;;;;;17.07;8.83;;;9.70;69.80;;;;;;5066937;28;20463;-71
2021/03/31 06:02:36;;;;;;;19.50;8.10;;;9.70;69.50;;;;;;5068619;28;20415;-71
2021/03/31 06:05:03;;;;;;;23.43;9.40;;;9.80;69.80;;;;;;5072330;28;20854;-72
2021/03/31 06:07:29;;;;;;;19.97;8.43;;;9.80;69.50;;;;;;5072581;28;20425;-71
2021/03/31 06:10:13;;;;;;;16.03;8.30;;;9.90;69.70;;;;;;5079300;28;20499;-72
2021/03/31 06:13:01;;;;;;;20.20;9.47;;;10.00;69.10;;;;;;5078725;28;20797;-72
2021/03/31 06:15:32;;;;;;;30.97;13.10;;;10.00;68.90;;;;;;5072212;28;20460;-71
2021/03/31 06:18:08;;;;;;;24.70;11.00;;;10.20;68.50;;;;;;5070745;28;20418;-72
2021/03/31 06:20:37;;;;;;;24.23;10.00;;;10.50;67.90;;;;;;5073148;28;21185;-71
2021/03/31 06:23:19;;;;;;;18.77;9.33;;;10.90;65.60;;;;;;5074152;28;20496;-73
2021/03/31 06:28:34;;;;;;;21.43;8.93;;;10.90;64.50;;;;;;5072308;28;20426;-72
2021/03/31 06:31:16;;;;;;;19.87;9.87;;;10.90;64.70;;;;;;5076010;28;20445;-72
2021/03/31 06:33:44;;;;;;;17.77;9.00;;;10.80;64.70;;;;;;5071175;28;20498;-71
2021/03/31 06:36:12;;;;;;;16.33;8.07;;;10.80;64.80;;;;;;5070052;28;20515;-73
2021/03/31 06:38:47;;;;;;;22.13;8.40;;;10.80;65.10;;;;;;5070247;28;20555;-71
2021/03/31 06:41:25;;;;;;;21.90;8.83;;;10.80;64.80;;;;;;5070788;28;20472;-71
2021/03/31 06:49:09;;;;;;;24.27;10.83;;;11.00;63.20;;;;;;5074738;28;20426;-72
2021/03/31 06:51:35;;;;;;;23.03;10.33;;;11.00;63.40;;;;;;5074247;28;20436;-73
2021/03/31 06:54:21;;;;;;;22.97;10.43;;;11.10;64.20;;;;;;5068924;28;20438;-72
2021/03/31 06:56:57;;;;;;;19.23;10.00;;;11.20;64.70;;;;;;5072685;28;20957;-72
2021/03/31 06:59:33;;;;;;;25.70;10.60;;;11.20;64.80;;;;;;5071060;28;20437;-72
2021/03/31 07:02:01;;;;;;;20.23;10.33;;;11.20;64.50;;;;;;5062228;28;21189;-71
2021/03/31 07:04:28;;;;;;;25.00;10.50;;;11.30;64.70;;;;;;5073379;28;20409;-71
2021/03/31 07:07:09;;;;;;;18.43;9.00;;;11.30;64.40;;;;;;5073677;28;20500;-72
2021/03/31 07:09:41;;;;;;;24.50;9.90;;;11.30;64.70;;;;;;5072673;28;20414;-71
2021/03/31 07:12:22;;;;;;;18.23;10.30;;;11.20;65.10;;;;;;5074808;28;20410;-72
2021/03/31 07:14:49;;;;;;;30.73;12.23;;;11.20;65.30;;;;;;5073076;28;20482;-72
2021/03/31 07:17:24;;;;;;;26.80;11.00;;;11.30;64.70;;;;;;5073827;28;20418;-71
2021/03/31 07:19:50;;;;;;;18.63;9.50;;;11.20;64.80;;;;;;5073520;28;20490;-72
2021/03/31 07:22:17;;;;;;;20.13;9.97;;;11.30;64.80;;;;;;5072994;28;20464;-71
2021/03/31 07:24:43;;;;;;;24.50;10.20;;;11.30;65.10;;;;;;5063602;28;20450;-72
2021/03/31 07:27:09;;;;;;;21.90;9.87;;;11.40;65.00;;;;;;5071302;28;20992;-72
2021/03/31 07:29:37;;;;;;;25.20;11.20;;;11.40;65.10;;;;;;5074725;28;20422;-72
2021/03/31 07:32:04;;;;;;;22.80;11.43;;;11.50;64.70;;;;;;5074608;28;20422;-72
2021/03/31 07:34:32;;;;;;;24.33;9.90;;;11.60;64.20;;;;;;5062248;28;21222;-71
2021/03/31 07:37:02;;;;;;;31.33;10.40;;;11.60;64.40;;;;;;5072916;28;20446;-71
2021/03/31 07:39:29;;;;;;;19.20;10.70;;;11.60;64.50;;;;;;5073255;28;20574;-72
2021/03/31 07:41:56;;;;;;;24.67;10.63;;;11.50;64.80;;;;;;5072981;28;20975;-71
2021/03/31 07:44:28;;;;;;;24.60;10.70;;;11.60;64.70;;;;;;5072531;28;20448;-71
2021/03/31 07:46:55;;;;;;;17.27;9.50;;;11.70;64.50;;;;;;5073551;28;20978;-72
2021/03/31 07:49:23;;;;;;;19.40;10.33;;;11.80;63.90;;;;;;5073805;28;20433;-71
2021/03/31 07:52:04;;;;;;;21.80;10.60;;;11.90;63.80;;;;;;5073018;28;20441;-71
2021/03/31 07:54:32;;;;;;;25.90;10.53;;;12.00;63.50;;;;;;5072276;28;20434;-73
2021/03/31 07:57:18;;;;;;;22.60;10.40;;;12.10;63.20;;;;;;5072753;28;20430;-71
2021/03/31 07:59:44;;;;;;;25.87;11.27;;;12.30;62.60;;;;;;5068864;28;20474;-72
2021/03/31 08:02:11;;;;;;;20.60;10.27;;;12.40;61.90;;;;;;5061618;28;20429;-72
2021/03/31 08:04:37;;;;;;;24.93;9.67;;;12.50;61.70;;;;;;5070894;28;20219;-72
2021/03/31 08:07:19;;;;;;;24.07;11.10;;;12.70;61.30;;;;;;5071910;28;20433;-74
2021/03/31 08:09:45;;;;;;;21.67;10.57;;;12.80;60.60;;;;;;5071975;28;20422;-72
2021/03/31 08:12:11;;;;;;;22.57;11.30;;;12.90;59.50;;;;;;5087201;28;20445;-71
2021/03/31 08:14:39;;;;;;;23.77;12.67;;;13.00;59.20;;;;;;5071201;28;20183;-71
2021/03/31 08:17:12;;;;;;;24.50;12.03;;;13.10;58.90;;;;;;5071698;28;20426;-72
2021/03/31 08:19:41;;;;;;;21.20;12.33;;;13.20;59.20;;;;;;5086901;28;20570;-72
2021/03/31 08:22:37;;;;;;;22.00;11.77;;;13.30;59.30;;;;;;5071746;28;20426;-70
2021/03/31 08:25:24;;;;;;;25.13;10.70;;;13.40;58.90;;;;;;5067242;28;20974;-71
2021/03/31 08:27:57;;;;;;;23.43;10.90;;;13.60;58.70;;;;;;5072127;28;20433;-72
2021/03/31 08:30:24;;;;;;;24.97;11.80;;;13.70;58.40;;;;;;5073235;28;20488;-72
2021/03/31 08:32:50;;;;;;;24.10;11.03;;;13.80;57.60;;;;;;5071420;28;20437;-73
2021/03/31 08:35:16;;;;;;;20.07;11.37;;;13.90;57.20;;;;;;5072463;28;20450;-72
2021/03/31 08:37:45;;;;;;;22.37;10.53;;;14.10;56.90;;;;;;5074663;28;20905;-71
2021/03/31 08:40:11;;;;;;;19.73;11.47;;;14.20;56.50;;;;;;5090519;28;20521;-72
2021/03/31 08:42:37;;;;;;;23.33;11.30;;;14.30;56.20;;;;;;5091269;28;20496;-72
2021/03/31 08:45:05;;;;;;;22.93;11.00;;;14.40;55.60;;;;;;5070558;28;20809;-71
2021/03/31 08:47:34;;;;;;;21.80;11.03;;;14.50;55.80;;;;;;5071526;28;20213;-71
2021/03/31 08:50:02;;;;;;;20.37;10.63;;;14.60;56.00;;;;;;5071155;28;20438;-73
2021/03/31 08:52:34;;;;;;;22.47;10.83;;;14.70;55.80;;;;;;5067264;28;20458;-71
2021/03/31 08:55:02;;;;;;;20.83;10.70;;;14.90;55.80;;;;;;5068817;28;20477;-71
2021/03/31 08:57:30;;;;;;;19.50;10.63;;;15.00;55.20;;;;;;5068936;28;20470;-71
2021/03/31 08:59:58;;;;;;;18.60;9.73;;;15.10;55.00;;;;;;5070150;28;20467;-72
2021/03/31 09:02:52;;;;;;;24.97;10.70;;;15.30;55.20;;;;;;5065673;28;20511;-72
2021/03/31 09:05:17;;;;;;;23.13;11.37;;;15.50;54.40;;;;;;5061286;28;20468;-72
2021/03/31 09:07:43;;;;;;;22.13;9.83;;;15.60;54.00;;;;;;5071625;28;20519;-71
2021/03/31 09:10:13;;;;;;;22.03;10.93;;;15.80;53.70;;;;;;5071603;28;20196;-73
2021/03/31 09:12:38;;;;;;;21.77;9.43;;;15.90;53.30;;;;;;5071463;28;20217;-71
2021/03/31 09:15:06;;;;;;;26.60;10.83;;;16.00;53.30;;;;;;5070222;28;20793;-73
2021/03/31 09:17:34;;;;;;;20.90;10.53;;;16.20;52.90;;;;;;5072355;28;20202;-71
2021/03/31 09:20:06;;;;;;;28.53;11.40;;;16.40;52.50;;;;;;5070869;28;20644;-72
2021/03/31 09:22:34;;;;;;;22.23;9.93;;;16.60;52.40;;;;;;5069475;28;20430;-71
2021/03/31 09:25:09;;;;;;;19.30;10.83;;;16.70;52.00;;;;;;5056381;28;20455;-71
2021/03/31 09:27:35;;;;;;;20.07;10.67;;;16.80;51.40;;;;;;5069326;28;20421;-72
2021/03/31 09:30:08;;;;;;;20.73;10.40;;;16.90;51.40;;;;;;5071748;28;20491;-72
2021/03/31 09:32:41;;;;;;;20.87;9.93;;;17.10;50.70;;;;;;5072504;28;20425;-71
2021/03/31 09:35:13;;;;;;;28.80;11.00;;;17.20;50.60;;;;;;5072283;28;20444;-71
2021/03/31 09:37:39;;;;;;;25.23;10.10;;;17.30;50.20;;;;;;5071725;28;20414;-71
2021/03/31 09:40:06;;;;;;;23.33;10.53;;;17.40;50.50;;;;;;5066853;28;20478;-71
2021/03/31 09:42:35;;;;;;;20.63;10.63;;;17.50;49.90;;;;;;5070292;28;20428;-72
2021/03/31 09:45:04;;;;;;;20.50;9.70;;;17.70;49.00;;;;;;5070736;28;20469;-71
2021/03/31 09:47:30;;;;;;;24.17;10.80;;;17.70;49.00;;;;;;5071230;28;20419;-71
2021/03/31 09:49:58;;;;;;;24.00;9.97;;;17.80;49.10;;;;;;5069682;28;20422;-72
2021/03/31 09:52:27;;;;;;;30.57;11.67;;;17.90;49.30;;;;;;5069593;28;20814;-71
2021/03/31 09:54:54;;;;;;;21.50;10.70;;;18.00;49.10;;;;;;5068780;28;20435;-73
2021/03/31 09:57:28;;;;;;;20.70;9.53;;;18.20;49.00;;;;;;5085210;28;20476;-72
2021/03/31 09:59:54;;;;;;;23.63;10.07;;;18.40;48.20;;;;;;5065401;28;20447;-72
2021/03/31 10:02:21;;;;;;;19.90;9.00;;;18.40;47.90;;;;;;5061366;28;20433;-71
2021/03/31 10:04:48;;;;;;;23.27;10.53;;;18.50;47.80;;;;;;5069076;28;20419;-72
2021/03/31 10:07:16;;;;;;;22.97;10.10;;;18.60;47.50;;;;;;5070613;28;20874;-72
2021/03/31 10:09:47;;;;;;;24.23;9.80;;;18.70;47.30;;;;;;5070145;28;20864;-73
2021/03/31 10:12:25;;;;;;;21.37;10.10;;;18.80;47.30;;;;;;5071065;28;20838;-74
2021/03/31 10:14:55;;;;;;;19.20;10.77;;;18.90;47.00;;;;;;5072924;28;20524;-72
2021/03/31 10:17:39;;;;;;;21.70;11.57;;;18.90;46.90;;;;;;5070803;28;20740;-71
2021/03/31 10:20:17;;;;;;;21.17;10.77;;;19.00;46.70;;;;;;5070193;28;20467;-72
2021/03/31 10:22:51;;;;;;;21.00;10.63;;;19.00;46.70;;;;;;5066271;28;20499;-73
2021/03/31 10:25:27;;;;;;;25.23;10.57;;;19.10;46.50;;;;;;5076732;28;20950;-73
2021/03/31 10:27:54;;;;;;;20.63;10.17;;;19.20;46.20;;;;;;5070823;28;20421;-73
2021/03/31 10:30:33;;;;;;;20.13;10.30;;;19.30;45.90;;;;;;5070179;28;20427;-73
2021/03/31 10:33:00;;;;;;;27.37;10.43;;;19.50;45.70;;;;;;5067770;28;21210;-72
2021/03/31 10:35:54;;;;;;;22.57;11.30;;;19.60;45.30;;;;;;5068737;28;20886;-72
2021/03/31 10:38:35;;;;;;;23.07;10.30;;;19.80;44.60;;;;;;5069375;28;20433;-72
2021/03/31 10:52:20;;;;;;;20.00;11.40;;;20.70;41.90;;;;;;5058939;28;20434;-72
2021/03/31 10:54:45;;;;;;;24.23;10.63;;;21.20;40.70;;;;;;5066960;28;20425;-72
2021/03/31 10:57:12;;;;;;;21.00;9.87;;;21.60;39.20;;;;;;5069436;28;20436;-74
2021/03/31 10:59:38;;;;;;;20.33;10.20;;;22.20;37.40;;;;;;5067403;28;20632;-73
2021/03/31 11:02:05;;;;;;;18.87;10.60;;;22.50;36.80;;;;;;5059096;28;20994;-70
2021/03/31 11:04:31;;;;;;;21.33;10.00;;;22.70;36.00;;;;;;5070377;28;20844;-72
2021/03/31 11:06:57;;;;;;;19.57;9.80;;;22.90;33.90;;;;;;5072508;28;20469;-72
2021/03/31 11:09:23;;;;;;;26.00;10.63;;;23.10;33.90;;;;;;5070978;28;20538;-71
2021/03/31 11:11:49;;;;;;;23.83;10.13;;;23.40;33.10;;;;;;5065909;28;20188;-72
2021/03/31 11:14:17;;;;;;;20.27;9.60;;;23.70;32.30;;;;;;5053534;28;20410;-71
2021/03/31 11:16:50;;;;;;;23.30;9.80;;;24.10;31.50;;;;;;5062774;28;20534;-72
2021/03/31 11:25:34;;;;;;;19.50;9.63;;;24.20;29.50;;;;;;5071089;28;20491;-70
2021/03/31 11:27:36;;;;;;;18.93;9.53;;;23.80;29.10;;;;;;5074924;28;20430;-70
2021/03/31 11:30:07;;;;;;;18.30;9.43;;;24.20;28.40;;;;;;5071765;28;20429;-71
2021/03/31 11:32:33;;;;;;;22.50;8.73;;;24.40;28.30;;;;;;5071448;28;20193;-72
2021/03/31 11:34:59;;;;;;;20.60;9.60;;;24.20;28.20;;;;;;5073036;28;21277;-73
2021/03/31 11:37:25;;;;;;;20.40;9.90;;;24.50;28.20;;;;;;5073152;28;20423;-73
2021/03/31 11:39:51;;;;;;;16.93;9.43;;;24.70;28.00;;;;;;5073003;28;20207;-72
2021/03/31 11:42:17;;;;;;;18.37;8.87;;;24.80;28.50;;;;;;5072967;28;20245;-71
2021/03/31 11:44:43;;;;;;;21.00;9.00;;;24.70;27.20;;;;;;5072646;28;20391;-70
2021/03/31 11:47:09;;;;;;;25.40;9.60;;;24.60;27.40;;;;;;5071547;28;20503;-73
2021/03/31 11:49:34;;;;;;;20.80;9.20;;;24.60;27.60;;;;;;5073130;28;20263;-72
2021/03/31 11:52:00;;;;;;;20.23;9.83;;;24.90;27.40;;;;;;5073098;28;20456;-71
2021/03/31 11:54:26;;;;;;;20.30;9.97;;;25.00;27.30;;;;;;5072659;28;20181;-72
2021/03/31 11:56:52;;;;;;;20.43;10.27;;;24.70;27.70;;;;;;5072926;28;20588;-72
2021/03/31 11:59:17;;;;;;;21.03;10.33;;;25.00;27.40;;;;;;5072792;28;20236;-72
2021/03/31 12:01:43;;;;;;;19.13;9.63;;;25.20;27.10;;;;;;5072652;28;20214;-70
2021/03/31 12:04:10;;;;;;;19.40;9.00;;;25.60;26.90;;;;;;5072528;28;20198;-73
2021/03/31 12:06:36;;;;;;;18.80;9.70;;;26.00;26.70;;;;;;5072723;28;20226;-75
2021/03/31 12:09:04;;;;;;;18.23;9.20;;;26.50;26.10;;;;;;5088453;28;20928;-71
2021/03/31 12:11:30;;;;;;;17.83;9.60;;;26.40;25.80;;;;;;5072739;28;20198;-72
2021/03/31 12:13:56;;;;;;;18.73;9.67;;;26.40;26.10;;;;;;5072247;28;20433;-72
2021/03/31 12:16:22;;;;;;;21.83;10.07;;;26.50;25.80;;;;;;5072918;28;20210;-72
2021/03/31 12:18:47;;;;;;;25.47;10.67;;;26.60;25.40;;;;;;5071876;28;20202;-70
2021/03/31 12:21:13;;;;;;;20.23;9.03;;;26.60;25.60;;;;;;5071406;28;20312;-71
2021/03/31 12:23:39;;;;;;;19.53;9.10;;;26.70;25.30;;;;;;5072281;28;20188;-73
2021/03/31 12:26:05;;;;;;;18.33;10.43;;;26.90;25.40;;;;;;5072922;28;20637;-72
2021/03/31 12:28:34;;;;;;;21.30;10.67;;;26.30;25.40;;;;;;5075619;28;20194;-71
2021/03/31 12:31:00;;;;;;;20.00;10.77;;;26.10;25.90;;;;;;5061738;28;20425;-73
2021/03/31 12:33:26;;;;;;;26.17;12.17;;;26.10;26.20;;;;;;5072554;28;20496;-73
2021/03/31 12:35:52;;;;;;;23.00;11.23;;;25.90;26.10;;;;;;5072863;28;20534;-71
2021/03/31 12:38:20;;;;;;;21.57;10.90;;;25.40;26.80;;;;;;5075572;28;20427;-71
2021/03/31 12:40:47;;;;;;;23.10;10.47;;;25.20;26.90;;;;;;5074771;28;20463;-72
2021/03/31 12:43:13;;;;;;;24.13;10.37;;;25.30;27.00;;;;;;5071612;28;20991;-73
2021/03/31 12:45:39;;;;;;;21.80;10.50;;;25.40;26.60;;;;;;5075822;28;20448;-72
2021/03/31 12:48:06;;;;;;;21.60;11.33;;;25.10;26.70;;;;;;5073790;28;20179;-73
2021/03/31 12:50:33;;;;;;;20.93;11.47;;;25.40;26.60;;;;;;5072788;28;20438;-72
2021/03/31 12:53:02;;;;;;;23.60;12.10;;;25.60;26.40;;;;;;5072687;28;20455;-70
2021/03/31 12:55:31;;;;;;;24.93;11.30;;;25.60;26.40;;;;;;5070700;28;20448;-72
2021/03/31 12:57:59;;;;;;;22.07;10.33;;;25.70;26.00;;;;;;5071178;28;20940;-73
2021/03/31 13:00:25;;;;;;;24.30;10.90;;;26.00;25.80;;;;;;5070824;28;20498;-71
2021/03/31 13:02:51;;;;;;;32.93;14.37;;;26.20;25.90;;;;;;5069426;28;20457;-73
2021/03/31 13:05:16;;;;;;;30.80;11.60;;;26.40;25.70;;;;;;5071987;28;20872;-72
2021/03/31 13:07:43;;;;;;;25.33;11.33;;;26.30;25.70;;;;;;5071768;28;20187;-71
2021/03/31 13:10:10;;;;;;;22.50;11.00;;;26.00;25.40;;;;;;5071974;28;20295;-71